createdAt,value
2018-07-30T00:02:18.101Z,99.90
2018-07-30T00:04:46.666Z,99.90
2018-07-30T00:09:43.275Z,99.90
2018-07-30T00:12:11.697Z,99.90
2018-07-30T00:14:40.119Z,99.90
2018-07-30T00:17:08.663Z,99.90
2018-07-30T00:19:37.116Z,99.90
2018-07-30T00:22:05.631Z,99.90
2018-07-30T00:24:34.094Z,99.90
2018-07-30T00:29:30.795Z,99.90
2018-07-30T00:31:59.329Z,99.90
2018-07-30T00:34:27.900Z,99.90
2018-07-30T00:36:56.472Z,99.90
2018-07-30T00:39:24.977Z,99.90
2018-07-30T00:41:53.427Z,99.90
2018-07-30T00:44:21.873Z,99.90
2018-07-30T00:49:18.693Z,99.90
2018-07-30T00:51:47.167Z,99.90
2018-07-30T00:54:15.610Z,99.90
2018-07-30T00:56:44.129Z,99.90
2018-07-30T00:59:12.600Z,99.90
2018-07-30T01:04:09.301Z,99.90
2018-07-30T01:09:08.269Z,99.90
2018-07-30T01:11:36.737Z,99.90
2018-07-30T01:14:05.200Z,99.90
2018-07-30T01:16:33.777Z,99.90
2018-07-30T01:19:02.253Z,99.90
2018-07-30T01:21:30.811Z,99.90
2018-07-30T01:23:59.284Z,99.90
2018-07-30T01:28:56.685Z,99.90
2018-07-30T01:31:25.241Z,99.90
2018-07-30T01:33:54.009Z,99.90
2018-07-30T01:38:51.201Z,99.90
2018-07-30T01:41:19.833Z,99.90
2018-07-30T01:43:48.349Z,99.90
2018-07-30T01:46:16.828Z,99.90
2018-07-30T01:48:45.289Z,99.90
2018-07-30T01:51:13.786Z,99.90
2018-07-30T01:53:42.214Z,99.90
2018-07-30T01:56:10.626Z,99.90
2018-07-30T01:58:39.091Z,99.90
2018-07-30T02:01:07.568Z,99.90
2018-07-30T02:03:36.024Z,99.90
2018-07-30T02:06:04.566Z,99.90
2018-07-30T02:08:33.041Z,99.90
2018-07-30T02:11:01.482Z,99.90
2018-07-30T02:13:30.000Z,99.90
2018-07-30T02:15:58.534Z,99.90
2018-07-30T02:20:55.163Z,99.90
2018-07-30T02:23:23.756Z,99.90
2018-07-30T02:25:52.266Z,99.90
2018-07-30T02:28:20.771Z,99.90
2018-07-30T02:30:49.218Z,99.90
2018-07-30T02:33:17.847Z,99.90
2018-07-30T02:40:44.076Z,99.90
2018-07-30T02:43:12.621Z,99.90
2018-07-30T02:48:15.323Z,99.90
2018-07-30T02:50:44.599Z,99.90
2018-07-30T02:55:41.531Z,99.90
2018-07-30T03:00:55.641Z,99.90
2018-07-30T03:03:24.530Z,99.90
2018-07-30T03:05:53.057Z,99.90
2018-07-30T03:10:50.239Z,99.90
2018-07-30T03:13:18.962Z,99.90
2018-07-30T03:15:47.701Z,99.90
2018-07-30T03:18:16.196Z,99.90
2018-07-30T03:20:45.399Z,99.90
2018-07-30T03:25:42.453Z,99.90
2018-07-30T03:28:10.967Z,99.90
2018-07-30T03:30:39.613Z,99.90
2018-07-30T03:33:15.943Z,99.90
2018-07-30T03:35:44.530Z,99.90
2018-07-30T03:38:13.072Z,99.90
2018-07-30T03:40:41.721Z,99.90
2018-07-30T03:43:10.414Z,99.90
2018-07-30T03:45:40.375Z,99.90
2018-07-30T03:48:09.146Z,99.90
2018-07-30T03:50:37.680Z,99.90
2018-07-30T03:53:06.353Z,99.90
2018-07-30T03:55:35.060Z,99.90
2018-07-30T03:58:03.658Z,99.90
2018-07-30T04:00:32.212Z,99.90
2018-07-30T04:12:53.914Z,99.90
2018-07-30T04:15:22.504Z,99.90
2018-07-30T04:17:51.108Z,99.90
2018-07-30T04:20:19.613Z,99.90
2018-07-30T04:22:48.193Z,99.90
2018-07-30T04:25:16.647Z,99.90
2018-07-30T04:27:45.109Z,99.90
2018-07-30T04:32:41.741Z,99.90
2018-07-30T04:35:10.214Z,99.90
2018-07-30T04:37:38.821Z,99.90
2018-07-30T04:57:28.878Z,99.90
2018-07-30T04:59:57.287Z,99.90
2018-07-30T05:02:25.842Z,99.90
2018-07-30T05:04:54.252Z,99.90
2018-07-30T05:12:19.225Z,99.90
2018-07-30T05:14:52.557Z,99.90
2018-07-30T05:17:20.977Z,99.90
2018-07-30T05:19:49.447Z,99.90
2018-07-30T05:27:14.457Z,99.90
2018-07-30T05:32:11.555Z,99.90
2018-07-30T05:37:08.159Z,99.90
2018-07-30T05:39:36.673Z,99.90
2018-07-30T05:44:33.287Z,99.90
2018-07-30T05:49:30.001Z,99.90
2018-07-30T05:51:58.538Z,99.90
2018-07-30T05:54:27.090Z,99.90
2018-07-30T05:56:55.617Z,99.90
2018-07-30T06:01:52.389Z,99.90
2018-07-30T06:04:21.127Z,99.90
2018-07-30T06:06:49.815Z,99.90
2018-07-30T06:09:18.393Z,99.90
2018-07-30T06:16:43.724Z,99.90
2018-07-30T06:19:12.206Z,99.90
2018-07-30T06:21:40.820Z,99.90
2018-07-30T06:24:19.003Z,99.90
2018-07-30T06:29:36.511Z,99.90
2018-07-30T06:32:05.029Z,99.90
2018-07-30T06:34:33.581Z,99.90
2018-07-30T06:37:07.780Z,99.90
2018-07-30T06:39:47.171Z,99.90
2018-07-30T06:42:16.181Z,99.90
2018-07-30T06:44:45.031Z,99.90
2018-07-30T06:47:13.687Z,99.90
2018-07-30T06:54:49.353Z,99.90
2018-07-30T06:57:18.313Z,99.90
2018-07-30T06:59:47.001Z,99.90
2018-07-30T07:04:50.123Z,99.90
2018-07-30T07:07:18.610Z,99.90
2018-07-30T07:09:47.133Z,99.90
2018-07-30T07:12:15.713Z,99.90
2018-07-30T07:14:44.244Z,99.90
2018-07-30T07:17:12.692Z,99.90
2018-07-30T07:19:41.277Z,99.90
2018-07-30T07:22:09.841Z,99.90
2018-07-30T07:24:38.337Z,99.90
2018-07-30T07:27:06.959Z,99.90
2018-07-30T07:29:35.432Z,99.90
2018-07-30T07:32:03.967Z,99.90
2018-07-30T07:37:00.619Z,99.90
2018-07-30T07:39:29.064Z,99.90
2018-07-30T07:41:57.467Z,99.90
2018-07-30T07:44:25.969Z,99.90
2018-07-30T07:46:54.489Z,99.90
2018-07-30T07:51:51.325Z,99.90
2018-07-30T07:56:48.047Z,99.90
2018-07-30T07:59:16.723Z,99.90
2018-07-30T08:01:49.118Z,99.90
2018-07-30T08:04:17.823Z,99.90
2018-07-30T08:09:14.496Z,99.90
2018-07-30T08:11:42.976Z,99.90
2018-07-30T08:14:11.519Z,99.90
2018-07-30T08:16:40.006Z,99.90
2018-07-30T08:19:08.525Z,99.90
2018-07-30T08:21:37.030Z,99.90
2018-07-30T08:24:05.705Z,98.70
2018-07-30T08:26:34.770Z,97.80
2018-07-30T08:29:03.396Z,96.50
2018-07-30T08:31:31.933Z,98.20
2018-07-30T08:34:00.430Z,98.50
2018-07-30T08:36:28.960Z,97.90
2018-07-30T08:38:57.397Z,94.70
2018-07-30T08:41:25.855Z,93.80
2018-07-30T08:43:54.289Z,94.10
2018-07-30T08:48:50.937Z,90.00
2018-07-30T08:51:19.355Z,91.20
2018-07-30T08:56:16.049Z,91.70
2018-07-30T08:58:44.487Z,86.30
2018-07-30T09:01:12.978Z,89.90
2018-07-30T09:03:41.438Z,87.30
2018-07-30T09:08:38.025Z,78.60
2018-07-30T09:11:06.536Z,79.20
2018-07-30T09:13:35.093Z,73.10
2018-07-30T09:16:03.568Z,75.70
2018-07-30T09:18:32.002Z,70.80
2018-07-30T09:21:00.486Z,71.20
2018-07-30T09:23:29.218Z,69.40
2018-07-30T09:25:57.662Z,70.10
2018-07-30T09:28:26.112Z,67.90
2018-07-30T09:30:54.607Z,69.70
2018-07-30T09:33:23.113Z,68.90
2018-07-30T09:35:51.556Z,66.40
2018-07-30T09:38:19.956Z,65.20
2018-07-30T09:40:48.398Z,69.30
2018-07-30T09:43:16.935Z,64.60
2018-07-30T09:45:45.428Z,62.30
2018-07-30T09:48:13.927Z,60.30
2018-07-30T09:55:38.590Z,60.80
2018-07-30T09:58:07.004Z,60.00
2018-07-30T10:00:40.968Z,58.40
2018-07-30T10:03:10.329Z,57.70
2018-07-30T10:05:39.105Z,57.90
2018-07-30T10:08:07.601Z,59.50
2018-07-30T10:13:04.188Z,60.10
2018-07-30T10:20:28.960Z,63.90
2018-07-30T10:27:53.746Z,59.70
2018-07-30T10:30:22.416Z,57.00
2018-07-30T10:32:50.957Z,53.30
2018-07-30T10:37:47.787Z,52.40
2018-07-30T10:40:16.286Z,45.80
2018-07-30T10:42:45.707Z,49.00
2018-07-30T10:45:14.246Z,48.00
2018-07-30T10:47:42.827Z,47.60
2018-07-30T10:50:11.269Z,44.40
2018-07-30T10:52:39.719Z,45.30
2018-07-30T10:55:08.238Z,43.80
2018-07-30T11:00:05.008Z,45.50
2018-07-30T11:02:33.483Z,47.00
2018-07-30T11:07:31.058Z,46.70
2018-07-30T11:09:59.497Z,47.20
2018-07-30T11:12:28.016Z,44.60
2018-07-30T11:14:56.550Z,44.40
2018-07-30T11:17:25.035Z,44.80
2018-07-30T11:19:53.506Z,44.30
2018-07-30T11:22:22.162Z,45.60
2018-07-30T11:24:50.615Z,44.20
2018-07-30T11:27:19.107Z,41.40
2018-07-30T11:32:15.821Z,41.60
2018-07-30T11:34:44.244Z,40.90
2018-07-30T11:37:12.741Z,41.10
2018-07-30T11:39:41.234Z,42.30
2018-07-30T11:42:09.816Z,42.90
2018-07-30T11:44:38.344Z,43.90
2018-07-30T11:47:07.146Z,44.00
2018-07-30T11:54:33.624Z,41.80
2018-07-30T11:57:02.073Z,42.50
2018-07-30T12:01:58.757Z,42.40
2018-07-30T12:04:27.511Z,43.60
2018-07-30T12:06:56.131Z,40.90
2018-07-30T12:09:24.568Z,41.20
2018-07-30T12:11:53.173Z,41.20
2018-07-30T12:14:21.579Z,41.20
2018-07-30T12:16:50.026Z,41.20
2018-07-30T12:21:53.220Z,43.10
2018-07-30T12:24:21.620Z,39.80
2018-07-30T12:26:50.068Z,39.60
2018-07-30T12:29:18.668Z,42.40
2018-07-30T12:31:47.160Z,39.40
2018-07-30T12:34:15.648Z,38.90
2018-07-30T12:36:44.090Z,40.50
2018-07-30T12:39:12.630Z,39.70
2018-07-30T12:44:09.195Z,40.00
2018-07-30T12:46:37.666Z,39.40
2018-07-30T12:49:06.132Z,40.70
2018-07-30T12:51:34.654Z,42.70
2018-07-30T12:54:03.098Z,44.20
2018-07-30T12:58:59.777Z,44.00
2018-07-30T13:01:28.289Z,42.40
2018-07-30T13:03:57.048Z,43.00
2018-07-30T13:06:25.558Z,44.50
2018-07-30T13:08:54.057Z,44.80
2018-07-30T13:11:22.541Z,44.90
2018-07-30T13:13:51.122Z,46.40
2018-07-30T13:16:19.622Z,44.00
2018-07-30T13:18:48.076Z,44.30
2018-07-30T13:21:16.545Z,44.70
2018-07-30T13:28:56.948Z,45.50
2018-07-30T13:33:57.160Z,44.50
2018-07-30T13:36:26.169Z,46.00
2018-07-30T13:38:56.247Z,48.20
2018-07-30T13:44:21.239Z,46.10
2018-07-30T13:46:58.762Z,46.20
2018-07-30T13:49:45.575Z,44.00
2018-07-30T13:52:14.323Z,44.40
2018-07-30T13:54:42.763Z,44.10
2018-07-30T13:57:11.436Z,45.70
2018-07-30T13:59:45.133Z,46.10
2018-07-30T14:04:48.568Z,44.10
2018-07-30T14:07:17.139Z,47.20
2018-07-30T14:09:53.812Z,47.00
2018-07-30T14:12:31.419Z,45.00
2018-07-30T14:15:00.174Z,47.40
2018-07-30T14:17:30.314Z,46.90
2018-07-30T14:19:59.096Z,44.60
2018-07-30T14:22:27.672Z,44.20
2018-07-30T14:24:57.757Z,43.40
2018-07-30T14:27:26.296Z,43.40
2018-07-30T14:29:54.876Z,45.60
2018-07-30T14:32:23.501Z,45.80
2018-07-30T14:34:52.053Z,44.40
2018-07-30T14:39:48.935Z,45.80
2018-07-30T14:44:45.561Z,47.50
2018-07-30T14:47:14.095Z,46.20
2018-07-30T14:49:47.593Z,47.50
2018-07-30T14:57:27.211Z,44.90
2018-07-30T15:00:04.938Z,46.20
2018-07-30T15:05:08.439Z,45.00
2018-07-30T15:12:51.457Z,43.40
2018-07-30T15:18:04.160Z,43.30
2018-07-30T15:23:49.174Z,44.50
2018-07-30T15:26:22.015Z,46.30
2018-07-30T15:29:00.375Z,45.00
2018-07-30T15:31:37.179Z,44.90
2018-07-30T15:37:07.314Z,43.20
2018-07-30T15:39:45.231Z,44.10
2018-07-30T15:42:28.148Z,44.50
2018-07-30T15:45:08.154Z,43.70
2018-07-30T15:47:40.914Z,42.70
2018-07-30T15:55:13.701Z,43.60
2018-07-30T15:57:45.770Z,46.80
2018-07-30T16:00:21.053Z,45.20
2018-07-30T16:02:56.919Z,46.10
2018-07-30T16:05:25.490Z,46.60
2018-07-30T16:07:54.005Z,44.90
2018-07-30T16:10:25.759Z,47.50
2018-07-30T16:12:54.194Z,48.20
2018-07-30T16:17:50.846Z,48.30
2018-07-30T16:22:47.681Z,47.60
2018-07-30T16:25:16.222Z,48.60
2018-07-30T16:27:44.924Z,49.50
2018-07-30T16:30:17.753Z,50.10
2018-07-30T16:35:14.757Z,49.90
2018-07-30T16:37:43.402Z,49.50
2018-07-30T16:42:41.685Z,50.10
2018-07-30T16:45:10.623Z,49.90
2018-07-30T16:47:39.101Z,51.30
2018-07-30T16:50:08.388Z,48.40
2018-07-30T16:52:36.888Z,50.00
2018-07-30T16:55:05.811Z,49.00
2018-07-30T16:57:34.418Z,51.30
2018-07-30T17:00:02.926Z,51.00
2018-07-30T17:04:59.737Z,51.90
2018-07-30T17:07:28.295Z,51.60
2018-07-30T17:09:56.839Z,51.60
2018-07-30T17:12:25.395Z,51.50
2018-07-30T17:14:53.911Z,52.70
2018-07-30T17:17:22.364Z,54.40
2018-07-30T17:22:19.114Z,55.00
2018-07-30T17:24:47.860Z,54.10
2018-07-30T17:27:18.210Z,54.70
2018-07-30T17:29:47.724Z,53.70
2018-07-30T17:32:30.785Z,55.90
2018-07-30T17:34:59.292Z,54.10
2018-07-30T17:37:27.762Z,56.20
2018-07-30T17:39:56.404Z,56.10
2018-07-30T17:44:53.239Z,56.60
2018-07-30T17:49:49.967Z,57.10
2018-07-30T17:52:18.381Z,57.80
2018-07-30T17:54:46.834Z,58.40
2018-07-30T17:57:15.383Z,57.40
2018-07-30T17:59:43.929Z,57.60
2018-07-30T18:02:12.552Z,57.30
2018-07-30T18:04:41.021Z,56.70
2018-07-30T18:07:09.536Z,57.50
2018-07-30T18:14:34.728Z,56.30
2018-07-30T18:17:03.317Z,59.80
2018-07-30T18:19:31.911Z,58.70
2018-07-30T18:22:01.472Z,58.90
2018-07-30T18:26:59.065Z,64.20
2018-07-30T18:31:56.122Z,60.20
2018-07-30T18:41:50.159Z,60.80
2018-07-30T18:46:46.937Z,66.90
2018-07-30T18:49:15.868Z,66.90
2018-07-30T18:51:44.325Z,69.30
2018-07-30T18:54:12.847Z,69.40
2018-07-30T19:04:06.821Z,73.50
2018-07-30T19:09:03.814Z,77.90
2018-07-30T19:14:01.478Z,82.00
2018-07-30T19:16:29.997Z,84.50
2018-07-30T19:18:59.532Z,90.50
2018-07-30T19:21:28.172Z,89.80
2018-07-30T19:23:56.774Z,92.20
2018-07-30T19:26:25.314Z,95.50
2018-07-30T19:31:24.378Z,97.60
2018-07-30T19:33:53.657Z,96.70
2018-07-30T19:38:51.934Z,98.70
2018-07-30T19:41:21.731Z,99.70
2018-07-30T19:43:51.640Z,99.90
2018-07-30T19:46:22.017Z,99.90
2018-07-30T19:48:51.483Z,99.90
2018-07-30T19:51:20.069Z,99.90
2018-07-30T19:53:49.157Z,99.90
2018-07-30T19:58:46.681Z,99.90
2018-07-30T20:08:42.255Z,99.90
2018-07-30T20:11:11.055Z,99.90
2018-07-30T20:13:41.322Z,99.90
2018-07-30T20:16:10.067Z,99.90
2018-07-30T20:18:38.668Z,99.90
2018-07-30T20:21:08.343Z,99.90
2018-07-30T20:23:37.160Z,99.90
2018-07-30T20:28:34.142Z,99.90
2018-07-30T20:33:31.154Z,99.90
2018-07-30T20:36:00.124Z,99.90
2018-07-30T20:38:29.289Z,99.90
2018-07-30T20:40:58.512Z,99.90
2018-07-30T20:43:27.591Z,99.90
2018-07-30T20:45:56.298Z,99.90
2018-07-30T20:50:54.004Z,99.90
2018-07-30T20:53:23.532Z,99.90
2018-07-30T20:55:52.383Z,99.90
2018-07-30T20:58:21.005Z,99.90
2018-07-30T21:00:49.600Z,99.90
2018-07-30T21:03:19.123Z,99.90
2018-07-30T21:08:16.689Z,99.90
2018-07-30T21:13:17.013Z,99.90
2018-07-30T21:15:46.129Z,99.90
2018-07-30T21:18:15.072Z,99.90
2018-07-30T21:20:43.817Z,99.90
2018-07-30T21:23:13.927Z,99.90
2018-07-30T21:25:42.510Z,99.90
2018-07-30T21:28:11.220Z,99.90
2018-07-30T21:30:39.841Z,99.90
2018-07-30T21:33:09.169Z,99.90
2018-07-30T21:35:38.233Z,99.90
2018-07-30T21:38:07.027Z,99.90
2018-07-30T21:40:35.596Z,99.90
2018-07-30T21:50:29.572Z,99.90
2018-07-30T21:52:58.241Z,99.90
2018-07-30T21:55:26.769Z,99.90
2018-07-30T21:57:55.582Z,99.90
2018-07-30T22:00:25.807Z,99.90
2018-07-30T22:10:22.636Z,99.90
2018-07-30T22:12:52.514Z,99.90
2018-07-30T22:15:21.602Z,99.90
2018-07-30T22:17:50.538Z,99.90
2018-07-30T22:20:19.068Z,99.90
2018-07-30T22:22:47.618Z,99.90
2018-07-30T22:25:16.284Z,99.90
2018-07-30T22:27:44.754Z,99.90
2018-07-30T22:30:13.433Z,99.90
2018-07-30T22:35:10.380Z,99.90
2018-07-30T22:47:32.597Z,99.90
2018-07-30T22:50:01.038Z,99.90
2018-07-30T22:52:29.650Z,99.90
2018-07-30T22:57:26.293Z,99.90
2018-07-30T22:59:54.788Z,99.90
2018-07-30T23:04:53.020Z,99.90
2018-07-30T23:07:22.052Z,99.90
2018-07-30T23:12:19.005Z,99.90
2018-07-30T23:14:47.994Z,99.90
2018-07-30T23:19:44.777Z,99.90
2018-07-30T23:22:13.494Z,99.90
2018-07-30T23:27:10.146Z,99.90
2018-07-30T23:29:39.749Z,99.90
2018-07-30T23:32:08.447Z,99.90
2018-07-30T23:34:37.103Z,99.90
2018-07-30T23:39:33.839Z,99.90
2018-07-30T23:42:02.380Z,99.90
2018-07-30T23:44:30.796Z,99.90
2018-07-30T23:46:59.398Z,99.90
2018-07-30T23:51:56.094Z,99.90
2018-07-30T23:54:24.591Z,99.90
2018-07-30T23:56:53.088Z,99.90
2018-07-30T23:59:22.226Z,99.90
